Logs for Charles Gumbert, Goddard, KS, USA [EM17fq]
Paging Controls
Date UTC KHz ID Location S/P ITU Region GSQ LSB USB Sec. Fmt. Power KM Miles
2021-04-26 0849 335 CV 'Hisan' Clovis NM USA na DM84ji 630 391
2021-04-26 0827 338 UMP 'Metropolitan' Indianapolis IN USA na EM69xw 25 1026 638
2021-04-26 0822 336 LF La Salle MB CAN na EN19ip 50 1330 826
2021-04-26 0821 345 GF 'Hiser' Grand Forks ND USA na EN17ju 1131 702
2021-04-26 0819 347 PA Prince Albert SK CAN na DO73cf 25 1841 1144
2021-04-26 0818 349 GW 'Teock' Greenwood MS USA na EM43wo 25 809 503
2021-04-26 0817 347 ATA Atlanta TX USA na EM23vc 25 592 368
2021-04-26 0814 344 TKH 'Tallulah' Vicksburg LA USA na EM42lf 847 527
2021-04-26 0213 340 YY Mont Joli QC CAN na FN58un 500 2641 1641
2021-04-26 0209 338 TT 'Stutt' Stuttgart AR USA na EM44fm 25 644 400
2021-04-25 0405 335 ZKF Kitchener (Wellington) ON CAN na EN93ul 15 1589 987
2021-04-25 0358 335 BV 'Almnd' Batesville AR USA na EM45cq 25 559 347
2021-04-25 0348 338 HR 'Sebas' Harlingen TX USA na EL16eh 25 1265 786
2021-04-25 0343 348 MC 'Surff' Mason City IA USA na EN33ib 25 697 433
2021-04-25 0336 346 YXL Sioux Lookout ON CAN na EO40bc 1000 1452 902
2021-04-25 0332 344 CGQ 'Powell' Corsicana TX USA na EM12sb 633 393
2021-04-25 0322 338 ZEM Eastmain QC CAN na FO02rf 25 2189 1360
2021-04-25 0312 335 YLD Chapleau ON CAN na EN87hs 100 1606 998
2021-04-24 1140 338 RYN 'Ryan' Tucson AZ USA na DM42kd 400 1381 858
2021-04-23 1736 347 GC 'Pieve' Garden City KS USA na DM97pt 25 279 173
2021-04-23 1734 344 JL 'Lunns' Joplin MO USA na EM27re 271 168
2021-04-23 1727 347 AFK Nebraska City NE USA na EN20bo 355 220
2021-04-23 1724 344 SL 'Flory' Salina KS USA na EM18eq 111 69
2021-04-23 1722 341 DNI Denison TX USA na EM13pt 25 437 272
2021-04-23 1721 338 JZ 'Newbn' Lawrence KS USA na EM28kv 25 250 155
2021-04-23 1720 338 TU 'Oillr' Tulsa OK USA na EM26bc 230 143
2021-04-23 1718 335 BK 'CHRLZ' Brookings SD USA na EN14mi 25 743 461
2021-04-23 1711 341 FO 'Barro' Fort Dodge IA USA na EN22um 25 604 375
2021-04-23 1711 341 OIN Oberlin KS USA na DM99rt 25 351 218
2021-03-29 0534 362 MT Manitowac WI USA na EN64de 1096 681
2021-03-29 0530 368 VIQ Neillsville WI USA na EN44rn 25 962 598
2021-03-29 0518 356 ZXE Barnes (Saskatoon) SK CAN na DO62rd 39 1753 1089
2021-03-29 0510 352 VM 'Meana', Mena Intermountain Municipal AR USA na EM24xm 25 472 293
2021-03-29 0507 350 CP 'Acore' Cahokia / St Louis IL USA na EM48xm 25 662 412
2021-03-29 0506 365 SYZ Shelbyville IL USA na EM59nj 25 777 483
2021-03-29 0458 360 SW 'Roadd' Warroad MN USA na EN28ju 25 1255 780
2021-03-29 0456 360 PN Port-Menier / Ile Anticosti QC CAN na FN79tu 500 2954 1835
2021-03-29 0435 362 RPX Round Up MT USA na DN56rl 25 1331 827
2021-03-29 0257 365 FT 'Mufin' Fort Worth TX USA na EM12hv 25 533 331
2021-03-29 0257 365 AA 'Kenie' Fargo MN USA na EN17oa 100 1039 646
2021-03-29 0255 359 SDR Snyder TX USA na DM92mq 25 637 395
2021-03-29 0252 353 IN 'Raize' International Falls MN USA na EN38il 100 1248 775
2021-03-29 0251 353 PG Portage MB CAN na EN09vu 25 1354 841
2021-03-29 0251 353 LI 'Lasky' Little Rock AR USA na EM34uq 400 577 359
2021-03-29 0250 356 PI 'Tungg' Peoria IL USA na EN50eo 40 755 469
2021-03-29 0245 366 YMW Maniwaki QC CAN na FN26ae 500 2011 1249
2021-03-29 0243 351 YKQ Waskaganish QC CAN na FO01pl 500 2127 1321
2021-03-29 0242 362 SB Sudbury ON CAN na EN96mp 400 1685 1047
2021-03-27 1633 359 GGF Grant NE USA na DN90du 502 312
2021-03-27 1632 356 ODX Ord NE USA na EN01mo 25 452 281
2021-03-27 1627 350 RG 'Gally' Oklahoma City OK USA na EM15eh 400 264 164
2021-01-24 0834 328 BZJ 'Bellgrove' Indiantown Gap PA USA na FN10rk 1834 1139
2021-01-24 0515 332 CZX Crosbyton TX USA na DM93jo 562 349
2021-01-24 0416 332 XH Medicine Hat AB CAN na DO40oa 50 1729 1074
2021-01-24 0413 329 X2 Athabasca AB CAN na DO34jr 2234 1388
2021-01-24 0253 330 MF 'Missi' Mc Allen TX USA na EL06ug 1271 790
2021-01-24 0251 331 JV 'Catch' Jeffersonville IN USA na EM78dl 1039 645
2021-01-24 0233 323 TAB Crown Point TRD ca FK91nd 4690 2914
2021-01-23 0409 329 YEK Arviat NU CAN na EP21xc 500 2615 1625
2021-01-23 0134 332 DN 'Julip' Danville IL USA na EN60fg 910 565
2021-01-23 0132 334 LH 'Egrow' Bloomington IL USA na EN50nn 812 505
2021-01-23 0113 323 KR Squaw Schefferville QC CAN na FO64ot 250 2994 1860
2021-01-23 0109 320 YQF Red Deer AB CAN na DO32bd 50 2049 1273
2021-01-23 0055 326 YQK Kenora ON CAN na EN29st 200 1370 851
2021-01-23 0039 332 YTE Cape Dorset NU CAN na FP14rf 3261 2026
2021-01-23 0036 332 SG 'Depre' Green Bay WI USA na EN54wj 25 1085 674
2021-01-23 0031 332 YFM La Grande 4 QC CAN na FO33dr 2000 2547 1582
2021-01-23 0028 332 QT Thunder Bay ON CAN na EN58gi 1000 1354 841
2021-01-23 0028 334 YER Fort Severn ON CAN na EO65ex 195 2164 1344
2021-01-23 0027 332 FIS 'Fish Hook' Key West FL USA na EL94cn 400 2086 1296
2021-01-23 0019 329 AAA 'Abraham' Lincoln IL USA na EN50hd 25 757 470
2021-01-23 0015 329 CH 'Ashly' Charleston SC USA na EM92wx 400 1661 1032
2021-01-23 0012 328 YTL Big Trout Lake ON CAN na EO53bt 1000 1886 1172
2021-01-23 0005 323 OUK Calhoun GA USA na EM74mj 24 1188 738
2021-01-23 0004 326 SU 'Snoop' Saint Louis MO USA na EM48op 25 599 372
2021-01-22 2359 326 PKZ 'Pickens' Pensacola FL USA na EM60jk 400 1246 774
2021-01-22 2358 326 FC Fredericton NB CAN na FN65qw 1600 2701 1678
2021-01-22 1819 332 IC 'Piche' Wichita KS USA na EM17gn 25 16 10
2021-01-22 1818 329 PMV Plattsmouth NE USA na EN20bw 25 389 241
2021-01-22 1816 326 MA 'Farly' Midland TX USA na DM81ux 400 768 477
2020-11-22 0452 420 CFY 'Evans' Lake City SC USA na FM03cu 25 1654 1028
2020-11-22 0215 245 UDG Darlington SC USA na FM04bk 25 1626 1010
2020-11-21 0419 426 UV 'Tunng' Oxford MS USA na EM54ej 25 800 497
2020-11-21 0417 426 IZS Montezuma GA USA na EM72xi 25 1363 847
2020-11-21 0414 420 TU 'Veron' Tupelo MS USA na EM54oe 25 878 546
2020-11-21 0412 420 FQ 'Montz' Fairmont MN USA na EN23tp 25 714 444
2020-11-21 0358 254 LLW 'Woodville' Elizabeth City NC USA na FM16ug 50 1890 1174
2020-11-21 0357 254 5B Summerside PE CAN na FN86bj 250 2918 1813
2020-11-21 0352 253 DD 'Cobbs' Columbus OH USA na EM89lr 49 1277 793
2020-11-21 0345 248 MOB 'Wisle' Mobile AL USA na EM50us 400 1145 712
2020-11-21 0336 245 GTP 'Patten' Thomasville GA USA na EM80cw 1466 911
2020-11-21 0331 242 LKG 'Lindbergh' Americus GA USA na EM72we 25 1365 848
2020-11-21 0319 254 ZYC Calgary AB CAN na DO21xe 25 1983 1232
2020-11-21 0317 248 QL Lethbridge AB CAN na DN39no 1803 1120
2020-11-21 0308 245 CB Cambridge Bay NU CAN na DP79lc 1000 3522 2188
2020-11-21 0302 248 KZ 'Buttonville' Stouffville (Toronto) ON CAN na FN03iw 25 1681 1044
2020-11-21 0256 256 YXN Whale Cove NU CAN na EP32qf 25 2749 1708
2020-11-21 0253 256 YCY Clyde River NU CAN na FQ50rl 1000 4019 2497
2020-11-21 0251 251 YCD Nanaimo BC CAN na CN89bd 500 2460 1529
2020-11-21 0242 257 XE Saskatoon SK CAN na DO62oe 25 1765 1097
2020-11-21 0240 257 LW Kelowna BC CAN na DO00hb 50 2212 1374
2020-11-21 0236 254 MB Manistee MI USA na EN64wg 1204 748
2020-11-21 0235 257 FWC 'Wayne County' Fairfield IL USA na EM58tj 25 806 501
2020-11-21 0230 257 HCY Cowley WY USA na DN54sv 50 1212 753
2020-11-21 0224 253 OC 'Nados' Nacogdoches TX USA na EM21pl 25 737 458
2020-11-21 0215 251 BR 'Larew' Brainerd MN USA na EN26xk 25 1014 630
2020-11-21 0211 250 FO Flin Flon MB CAN na DO94dq 1600 1916 1190
2020-11-21 0208 248 CG 'Dutch' Cape Girardeau MO USA na EM57dg 692 430
2020-11-21 0200 248 UL Montreal QC CAN na FN35bl 1000 2140 1330
2020-11-21 0147 245 PWF 'Sportys' Batavia OH USA na EM79vb 25 1171 728
2020-11-21 0143 244 TH Thompson MB CAN na EO15bt 1000 2015 1252
2020-11-21 0135 242 XC Cranbrook BC CAN na DN29cq 400 1973 1226
2020-11-21 0132 240 CJ 'Calde' Springfield IL USA na EM59et 726 451
2020-11-20 1830 248 PQF Mesquite TX USA na EM12rt 25 549 341
2020-11-20 1818 420 PK Olathe KS USA na EM28ps 25 275 171
2020-11-20 1817 257 JYR York NE USA na EN10ev 25 357 222
2020-11-20 1815 255 SW 'Blaki' Stillwater OK USA na EM16kf 50 166 103
2020-11-20 1815 257 DT 'Pinck' Denton TX USA na EM13jg 25 492 306
2020-11-20 1813 251 JZY Macomb IL USA na EN40rm 25 681 423
2020-11-20 1812 251 AM 'Pande' Amarillo TX USA na DM95cd 400 474 294
2020-11-20 1812 253 GB 'Garno' Marshall MN USA na EN24bm 25 772 480
2020-11-20 1811 248 WG Winnipeg MB CAN na EN19hv 250 1357 843
2020-11-20 1808 245 FS 'Rokky' Sioux Falls SD USA na EN13ol 100 647 402
2020-10-25 0645 408 MW 'Pelly' Moses Lake WA USA na DN07ic 2060 1280
2020-10-25 0641 278 EOE 'Enoree' Newberry SC USA na EM94eh 25 1478 918
2020-10-25 0636 296 LGD La Grande OR USA na DN15ai 25 1894 1177
2020-10-25 0626 211 AN 'Bogga' Anniston AL USA na EM73am 25 1144 711
2020-10-25 0506 404 MOG Montague CA USA na CN81sr 25 2170 1348
2020-10-25 0457 383 PI 'Tyhee' Pocatello ID USA na DN32rx 400 1398 869
2020-10-25 0427 363 RNB 'Rainbow' Millville NJ USA na FM29kk 50 1953 1214
2020-10-25 0331 349 GW 'Teock' Greenwood MS USA na EM43wo 25 809 503
2020-10-25 0235 290 YYF Penticton BC CAN na DN09el 500 2196 1364
2020-10-25 0226 280 QX Gander NL CAN na GN28px 1000 3628 2254
2020-10-25 0223 365 JN 'Balll' Muncie IN USA na EN70ie 1094 680
2020-10-25 0210 426 IZS Montezuma GA USA na EM72xi 25 1363 847
2020-10-25 0151 338 TT 'Stutt' Stuttgart AR USA na EM44fm 25 644 400
2020-10-25 0142 309 GPI Guapi CLM sa FJ12bn 500 4390 2727
2020-10-25 0131 368 VIQ Neillsville WI USA na EN44rn 25 962 598
2020-10-25 0127 341 CQN 'Daisy' Chattanooga TN USA na EM75kd 50 1145 712
2020-10-25 0120 245 PWF 'Sportys' Batavia OH USA na EM79vb 25 1171 728
2020-10-25 0113 206 QI Yarmouth NS CAN na FN63wt 500 2714 1687
2020-10-25 0108 345 GF 'Hiser' Grand Forks ND USA na EN17ju 1131 702
2020-10-25 0104 379 BRA 'Broad River' Asheville NC USA na EM85sg 100 1373 853
2020-10-25 0058 382 IRS Sturgis MI USA na EN71gt 25 1129 701
2020-10-25 0056 329 BQP Bastrop LA USA na EM42bs 25 750 466
2020-10-25 0051 340 GN 'Brindl' Lexington KY USA na EM78rc 1141 709
2020-10-25 0041 263 CVM 'Civic Memorial' Alton IL USA na EM48xv 668 415
2020-10-25 0035 326 PKZ 'Pickens' Pensacola FL USA na EM60jk 400 1246 774
2020-10-24 0257 338 RYN 'Ryan' Tucson AZ USA na DM42kd 400 1381 858
2020-10-24 0226 266 XD Edmonton AB CAN na DO33fp 2155 1339
2020-10-24 0224 257 XE Saskatoon SK CAN na DO62oe 25 1765 1097
2020-10-24 0222 362 RPX Round Up MT USA na DN56rl 25 1331 827
2020-10-24 0216 275 GEY Greybull WY USA na DN54xm 50 1161 721
2020-10-24 0155 391 DDP San Juan / Dorado / Luiz Munoz Marin Intl PR PTR ca FK68tl 2000 3700 2299
2020-10-24 0138 245 FS 'Rokky' Sioux Falls SD USA na EN13ol 100 647 402
2020-10-24 0133 365 AA 'Kenie' Fargo MN USA na EN17oa 100 1039 646
2020-10-24 0125 351 YKQ Waskaganish QC CAN na FO01pl 500 2127 1321
2020-10-24 0119 218 RL Red Lake ON CAN na EO31cb 1000 1516 942
2020-10-24 0106 278 CEP 'Capitan' Ruidoso NM USA na DM73hl 25 848 527
2020-10-24 0059 248 WG Winnipeg MB CAN na EN19hv 250 1357 843
2020-10-23 1807 269 BEX Bloomfield IA USA na EN30sr 25 553 344
2020-10-23 1749 293 FBY Fairbury NE USA na EN10ke 50 280 174
2020-10-23 1748 281 DMO Sedalia MO USA na EM38jq 25 395 245
2020-10-23 1745 255 SW 'Blaki' Stillwater OK USA na EM16kf 50 166 103
2020-10-23 1742 209 ITR 'Kit Carson' Burlington CO USA na DM89uf 25 448 278
2020-10-23 1741 230 NRN Norton KS USA na EM09bu 25 314 195
2020-10-23 1740 251 AM 'Pande' Amarillo TX USA na DM95cd 400 474 294
2020-09-27 0927 524 HRD 'Hardin County' Kountze / Silsbee TX USA na EM20ui 25 868 540
2020-09-27 0859 516 YWA Petawawa ON CAN na FN15iv 25 1903 1182
2020-09-27 0834 266 XD Edmonton AB CAN na DO33fp 2155 1339
2020-09-27 0822 269 UDE Delta MB CAN na EO00ud 50 1386 861
2020-09-26 2305 260 ST 'Tario' Saint Joseph MO USA na EM29nq 25 321 199
2020-09-26 0139 263 CVM 'Civic Memorial' Alton IL USA na EM48xv 668 415
2020-09-26 0130 269 BEX Bloomfield IA USA na EN30sr 25 553 344
2020-09-26 0128 266 PYX Perryton TX USA na DM96pj 25 316 196
2020-09-26 0126 267 HET Henryetta OK USA na EM15xj 25 288 179
2020-06-26 1725 230 NRN Norton KS USA na EM09bu 25 314 195
2020-06-26 1716 209 ITR 'Kit Carson' Burlington CO USA na DM89uf 25 448 278
2020-06-26 1715 233 AZN 'Amazon' St. Joseph MO USA na EM29nv 25 337 209
2020-06-26 1705 201 BV 'Dewie' Bartlesville OK USA na EM16xu 25 162 101
2020-05-22 1802 400 AHQ Wahoo NE USA na EN11qf 401 249
2020-05-22 1758 392 FMZ 'Beklof' Fairmont NE USA na EN10fo 25 324 201
2020-05-22 1754 383 CNP Chappell NE USA na DN81sb 25 565 351
2020-05-22 1752 380 OEL Oakley KS USA na DM99oc 25 324 201
2020-05-22 1749 359 GGF Grant NE USA na DN90du 502 312
2020-05-22 1745 356 ODX Ord NE USA na EN01mo 25 452 281
2020-05-22 1740 293 FBY Fairbury NE USA na EN10ke 50 280 174
2020-05-22 1739 275 GUY Guymon OK USA na DM96fq 25 371 231
2020-05-22 1736 267 HET Henryetta OK USA na EM15xj 25 288 179
2020-05-22 1734 257 JYR York NE USA na EN10ev 25 357 222
2020-05-22 1733 251 AM 'Pande' Amarillo TX USA na DM95cd 400 474 294
2020-05-22 1727 395 ULS Ulysses KS USA na DM97ho 338 210
2020-05-22 1716 341 OIN Oberlin KS USA na DM99rt 25 351 218
2020-05-22 1712 395 CA 'Harvs' Newton KS USA na EM18id 25 55 34
2020-05-22 1711 350 RG 'Gally' Oklahoma City OK USA na EM15eh 400 264 164
2020-05-22 1710 332 IC 'Piche' Wichita KS USA na EM17gn 25 16 10
2020-05-22 1704 201 BV 'Dewie' Bartlesville OK USA na EM16xu 25 162 101
2020-04-26 1211 385 LN 'Potts' Lincoln NE USA na EN10or 45 344 214
2020-04-26 1147 393 BZ 'Fossi' Clinton OK USA na EM05jk 25 291 181
2020-04-26 1026 385 QV Yorkton SK CAN na DO81rf 100 1556 967
2020-04-25 1212 395 ULS Ulysses KS USA na DM97ho 338 210
2020-04-25 1210 395 CA 'Harvs' Newton KS USA na EM18id 25 55 34
2020-04-25 1208 392 FMZ 'Beklof' Fairmont NE USA na EN10fo 25 324 201
2020-04-25 1202 388 OK 'Preso' Preston (Okmulgee) OK USA na EM25as 25 256 159
2020-04-25 1154 386 SYF St. Francis KS USA na DM99cr 25 433 269
2020-03-30 1015 410 JU 'Ashee' West Jefferson NC USA na EM96ik 25 1447 899
2020-03-30 0958 405 2K Camrose AB CAN na DO33oa 2070 1286
2020-03-30 0908 416 LB 'Panbe' North Platte NE USA na DN91rb 50 455 283
2020-03-30 0856 407 ZHU Hauts-Bois / St Hubert (Montreal) QC CAN na FN35hn 95 2180 1355
2020-03-30 0420 400 ROB 'Robinson' Waco TX USA na EM11lm 687 427
2020-03-30 0415 419 RYS 'Grosse Ile' Detroit / Grosse Ile MI USA na EN82kc 25 1322 821
2020-03-30 0359 404 MOG Montague CA USA na CN81sr 25 2170 1348
2020-03-30 0330 402 CV Carlz Carlsbad NM USA na DM72tg 866 538
2020-03-30 0309 400 FN 'Colln' Fort Collins / Loveland CO USA na DN70mi 25 706 438
2020-03-30 0230 400 AI 'Addmo' Ardmore OK USA na EM14mf 25 388 241
2020-03-29 0253 410 BA 'Clifs' Columbus IN USA na EM79ch 25 1037 645
2020-03-29 0232 401 YPO Peawanuck ON CAN na EO74gx 125 2127 1322
2020-03-28 0432 407 OOC 'Campi' Natchitoches LA USA na EM31lp 25 787 489
2020-03-28 0417 414 GRN Gordon NE USA na DN82vt 694 431
2020-03-28 0415 415 CBC West End (Cayman Brac) CYM ca FK09bq 600 2631 1635
2020-03-28 0407 418 CW 'Mossy' Lake Charles LA USA na EM30jh 25 912 566
2020-03-28 0405 417 IY 'Chukk' Charles City IA USA na EN33pd 25 732 455
2020-03-28 0403 413 YHD Dryden ON CAN na EN39nu 250 1403 872
2020-03-28 0402 414 ATS Artesia NM USA na DM72su 25 826 513
2020-03-28 0354 406 YLJ Meadow Lake SK CAN na DO54qd 15 2015 1252
2020-03-28 0350 407 CO 'Petey' Colorado Springs CO USA na DM78pq 25 636 395
2020-03-28 0344 400 QQ Comox BC CAN na CN79ms 2558 1589
2020-03-27 2114 420 PK Olathe KS USA na EM28ps 25 275 171
2020-03-27 2054 419 GB 'Babsy' Great Bend KS USA na EM08ng 25 134 83
2020-03-27 2049 408 JDM 'Wheatfield' Colby KS USA na DM99lm 25 366 227
2020-03-27 2042 404 HU 'Saltt' Hutchinson KS USA na EM18ac 25 59 37
2020-03-27 2041 400 AHQ Wahoo NE USA na EN11qf 401 249
2020-03-27 0019 407 PLT 'Platte Center' Columbus NE USA na EN11hl 50 422 262
2020-03-25 1121 515 PN 'Ponca' Ponca City OK USA na EM16kt 25 104 65
2020-03-25 1120 428 POH Pocahontas IA USA na EN22qr 25 613 381
2020-03-25 1118 426 IZS Montezuma GA USA na EM72xi 25 1363 847
2020-03-25 1118 426 UV 'Tunng' Oxford MS USA na EM54ej 25 800 497
2020-03-25 1116 423 PCW Port Clinton OH USA na EN81nm 25 1325 823
2020-03-25 1115 420 PK Olathe KS USA na EM28ps 25 275 171
2020-03-25 1113 420 FQ 'Montz' Fairmont MN USA na EN23tp 25 714 444
2020-03-25 1112 417 IY 'Chukk' Charles City IA USA na EN33pd 25 732 455
2020-03-25 1111 418 CW 'Mossy' Lake Charles LA USA na EM30jh 25 912 566
2020-03-25 1108 415 CBC West End (Cayman Brac) CYM ca FK09bq 600 2631 1635
2020-03-25 1106 412 CMY 'Mc Coy' Sparta WI USA na EN43qw 10 906 563
2020-03-25 1103 406 YLJ Meadow Lake SK CAN na DO54qd 15 2015 1252
2020-03-25 1101 407 OOC 'Campi' Natchitoches LA USA na EM31lp 25 787 489
2020-03-25 1059 397 CIR Cairo IL USA na EM57jb 25 739 459
2020-03-25 1057 408 JDM 'Wheatfield' Colby KS USA na DM99lm 25 366 227
2020-03-25 1049 407 CO 'Petey' Colorado Springs CO USA na DM78pq 25 636 395
2020-03-25 1047 404 MOG Montague CA USA na CN81sr 25 2170 1348
2020-03-25 1046 404 XCR 'Ripley' Little Falls MN USA na EN26tb 50 967 601
2020-03-25 1043 404 HU 'Saltt' Hutchinson KS USA na EM18ac 25 59 37
2020-03-25 1042 400 AHQ Wahoo NE USA na EN11qf 401 249
2020-03-25 1039 395 ULS Ulysses KS USA na DM97ho 338 210
2020-03-25 1036 386 SYF St. Francis KS USA na DM99cr 25 433 269
2020-03-25 1033 383 CNP Chappell NE USA na DN81sb 25 565 351
2020-03-25 1032 382 YPL Pickle Lake ON CAN na EO41vk 500 1633 1015
2020-03-25 1030 380 OEL Oakley KS USA na DM99oc 25 324 201
2020-03-25 1030 382 SP 'Huskk' Springfield IL USA na EM59cs 25 711 442
2020-03-25 1028 380 GC 'Deryk' Gillette WY USA na DN74fg 25 992 617
2020-03-25 1027 379 RUE Russellville AR USA na EM35kg 25 477 297
2020-03-25 1025 379 DL 'Pykla' Duluth MN USA na EN36tu 1104 686
2020-03-25 1022 374 HY 'Nette' Hays KS USA na EM08js 189 117
2020-03-25 1019 368 ZP Sandspit BC CAN na CO43ce 3134 1947
2020-03-25 1018 366 EOK Keokuk IA USA na EN40gl 25 610 379
2020-03-25 1017 368 ROQ Ruston LA USA na EM32qo 25 720 448
2020-03-25 1015 365 AA 'Kenie' Fargo MN USA na EN17oa 100 1039 646
2020-03-25 1012 356 ODX Ord NE USA na EN01mo 25 452 281
2020-03-25 1009 353 PG Portage MB CAN na EN09vu 25 1354 841
2020-03-25 1008 353 LI 'Lasky' Little Rock AR USA na EM34uq 400 577 359
2020-03-25 1007 351 YKQ Waskaganish QC CAN na FO01pl 500 2127 1321
2020-03-25 1004 350 NY Enderby BC CAN na DO00mp 500 2220 1379
2020-03-25 1002 349 GW 'Teock' Greenwood MS USA na EM43wo 25 809 503
2020-03-25 1001 350 RG 'Gally' Oklahoma City OK USA na EM15eh 400 264 164
2020-03-25 1000 347 AFK Nebraska City NE USA na EN20bo 355 220
2020-03-25 0959 346 YXL Sioux Lookout ON CAN na EO40bc 1000 1452 902
2020-03-25 0956 344 YC Calgary AB CAN na DO31bb 1965 1221
2020-03-25 0953 340 YY Mont Joli QC CAN na FN58un 500 2641 1641
2020-03-25 0952 338 TT 'Stutt' Stuttgart AR USA na EM44fm 25 644 400
2020-03-25 0952 341 OIN Oberlin KS USA na DM99rt 25 351 218
2020-03-25 0950 338 JZ 'Newbn' Lawrence KS USA na EM28kv 25 250 155
2020-03-25 0947 338 UMP 'Metropolitan' Indianapolis IN USA na EM69xw 25 1026 638
2020-03-25 0946 338 TU 'Oillr' Tulsa OK USA na EM26bc 230 143
2020-03-25 0942 335 YLD Chapleau ON CAN na EN87hs 100 1606 998
2020-03-25 0941 335 BK 'CHRLZ' Brookings SD USA na EN14mi 25 743 461
2020-03-25 0940 335 BV 'Almnd' Batesville AR USA na EM45cq 25 559 347
2020-03-25 0937 329 PMV Plattsmouth NE USA na EN20bw 25 389 241
2020-03-25 0935 328 YTL Big Trout Lake ON CAN na EO53bt 1000 1886 1172
2020-03-25 0932 326 VV Wiarton ON CAN na EN94jq 400 1568 975
2020-03-25 0932 332 QT Thunder Bay ON CAN na EN58gi 1000 1354 841
2020-03-25 0930 332 IC 'Piche' Wichita KS USA na EM17gn 25 16 10
2020-03-25 0930 332 FIS 'Fish Hook' Key West FL USA na EL94cn 400 2086 1296
2020-03-25 0925 326 MA 'Farly' Midland TX USA na DM81ux 400 768 477
2020-03-25 0922 317 VC La Ronge SK CAN na DO75ic 500 2022 1257
2020-03-25 0919 311 GK 'Jembo' Fort Smith AR USA na EM25sh 25 382 237
2020-03-25 0915 305 RO 'Topan' Roswell NM USA na DM73si 400 789 490
2020-03-25 0914 305 OI 'Tommi' South Sioux City NE USA na EN12sl 25 541 336
2020-03-25 0913 302 QW North Battleford SK CAN na DO52tt 40 1878 1167
2020-03-25 0911 300 YIV Island Lake MB CAN na EO23qu 500 1811 1125
2020-03-25 0910 299 TV Turner Valley AB CAN na DO20ts 200 1969 1223
2020-03-25 0903 293 TOR Torrington WY USA na DN72wb 25 743 461
2020-03-25 0901 293 FBY Fairbury NE USA na EN10ke 50 280 174
2020-03-25 0859 290 QR Regina SK CAN na DO70ri 100 1514 940
2020-03-25 0856 284 RT Rankin Inlet NU CAN na EP32wt 1000 2817 1750
2020-03-25 0850 282 ROS Rush City MN USA na EN35mq 25 967 601
2020-03-25 0849 281 DMO Sedalia MO USA na EM38jq 25 395 245
2020-03-25 0844 278 NM Matagami QC CAN na FN19dr 400 2070 1286
2020-03-25 0839 278 CEP 'Capitan' Ruidoso NM USA na DM73hl 25 848 527
2020-03-25 0837 276 YEL Elliot Lake ON CAN na EN86qi 250 1560 969
2020-03-25 0836 275 GUY Guymon OK USA na DM96fq 25 371 231
2020-03-25 0832 275 GEY Greybull WY USA na DN54xm 50 1161 721
2020-03-25 0830 272 YQA Muskoka ON CAN na FN05ia 400 1722 1070
2020-03-25 0828 269 BEX Bloomfield IA USA na EN30sr 25 553 344
2020-03-25 0826 267 HET Henryetta OK USA na EM15xj 25 288 179
2020-03-25 0824 266 XD Edmonton AB CAN na DO33fp 2155 1339
2020-03-25 0819 258 ZSJ Sandy Lake ON CAN na EO33hb 500 1739 1081
2020-03-25 0818 257 JYR York NE USA na EN10ev 25 357 222
2020-03-25 0817 257 XE Saskatoon SK CAN na DO62oe 25 1765 1097
2020-03-25 0814 255 SW 'Blaki' Stillwater OK USA na EM16kf 50 166 103
2020-03-25 0812 253 GB 'Garno' Marshall MN USA na EN24bm 25 772 480
2020-03-25 0810 250 FO Flin Flon MB CAN na DO94dq 1600 1916 1190
2020-03-25 0809 251 AM 'Pande' Amarillo TX USA na DM95cd 400 474 294
2020-03-25 0808 248 PQF Mesquite TX USA na EM12rt 25 549 341
2020-03-25 0807 248 UL Montreal QC CAN na FN35bl 1000 2140 1330
2020-03-25 0805 245 YZE Gore Bay ON CAN na EN85qw 400 1535 954
2020-03-25 0804 244 TH Thompson MB CAN na EO15bt 1000 2015 1252
2020-03-25 0800 236 ZRJ Round Lake ON CAN na EO42iw 25 1763 1095
2020-03-25 0752 233 QN Nakina ON CAN na EO60qe 400 1638 1018
2020-03-25 0747 224 DN Dauphin MB CAN na DO91xc 25 1504 935
2020-03-25 0742 220 BX Blanc Sablon / Lourdes de Blanc Sablon QC CAN na GO11jk 2000 3485 2165
2020-03-25 0738 218 RL Red Lake ON CAN na EO31cb 1000 1516 942
2020-03-25 0733 212 YGX Gillam MB CAN na EO26pi 2086 1296
2020-03-25 0733 212 LIU Littlefield TX USA na DM83tw 25 603 375
2020-03-25 0728 209 IB Atikokan ON CAN na EN48ft 250 1328 825
2020-03-25 0723 209 ITR 'Kit Carson' Burlington CO USA na DM89uf 25 448 278
2020-03-25 0714 198 DIW Dixon NC USA na FM14gn 2000 1833 1139
2020-03-25 0714 201 BV 'Dewie' Bartlesville OK USA na EM16xu 25 162 101
2020-03-17 1123 408 Z7 Claresholm AB CAN na DO30ea 50 1874 1165
2020-03-17 1111 404 MOG Montague CA USA na CN81sr 25 2170 1348
2020-03-17 1103 397 ZSS Yellowhead (Saskatoon) SK CAN na DO62pf 25 1767 1098
2020-03-17 1050 387 CAV Clarion IA USA na EN32cr 25 644 400
2020-03-17 1044 385 DXB De Ridder LA USA na EM30hs 859 534
2020-03-17 1039 380 GR 'Sancy' Grand Island NE USA na EN00uu 358 222
2020-03-17 1021 372 UQN 'Onyun' Vidalia GA USA na EM82uf 25 1514 941
2020-03-17 1017 368 PNM Princeton MN USA na EN35en 25 934 580
2020-03-17 1000 360 SW 'Roadd' Warroad MN USA na EN28ju 25 1255 780
2020-03-17 0918 342 PFT 'Piney' Pinecreek MN USA na EN28ax 1262 784
2020-03-13 1100 266 XD Edmonton AB CAN na DO33fp 2155 1339
2020-03-13 1026 224 DN Dauphin MB CAN na DO91xc 25 1504 935
2020-03-13 1020 221 QU Grande Prairie AB CAN na DO05od 50 2513 1561
2020-03-13 1008 215 ZAB 'Leduc' Edmonton (Intl Apt) AB CAN na DO33gf 25 2117 1315
2020-03-13 0945 516 YWA Petawawa ON CAN na FN15iv 25 1903 1182
2020-03-13 0923 407 PLT 'Platte Center' Columbus NE USA na EN11hl 50 422 262
2020-03-13 0922 405 2K Camrose AB CAN na DO33oa 2070 1286
2020-03-13 0848 385 CPZ 'Chaparrosa Ranch' La Pryor TX USA na DL98xv 25 1004 624
2020-03-13 0823 368 SX Skookum (Cranbrook) BC CAN na DN29cw 500 1990 1236
2020-03-13 0751 344 YC Calgary AB CAN na DO31bb 1965 1221
2020-03-11 0311 223 YYW Armstrong ON CAN na EO50lh 100 1557 967
2020-03-08 1033 233 AZN 'Amazon' St. Joseph MO USA na EM29nv 25 337 209
2020-03-08 1032 230 NRN Norton KS USA na EM09bu 25 314 195
2020-03-08 1019 214 LU 'Cultus' Abbotsford BC CAN na CN89xa 400 2331 1449
2020-03-08 1015 212 YGX Gillam MB CAN na EO26pi 2086 1296
2020-03-08 1008 201 GL La Grande Riviere QC CAN na FO13dp 500 2334 1450
2020-03-08 1004 200 UAB Anahim Lake BC CAN na CO72jj 1000 2692 1673
2020-03-08 1002 201 IP Mobile AZ USA na DM33tc 25 1436 892
2020-03-08 0952 515 OS 'Fuler' Columbus OH USA na EN80jb 25 1267 787
2020-03-08 0951 515 PN 'Ponca' Ponca City OK USA na EM16kt 25 104 65
2020-03-08 0949 428 POH Pocahontas IA USA na EN22qr 25 613 381
2020-03-08 0948 426 IZS Montezuma GA USA na EM72xi 25 1363 847
2020-03-08 0943 426 UV 'Tunng' Oxford MS USA na EM54ej 25 800 497
2020-03-08 0942 423 PCW Port Clinton OH USA na EN81nm 25 1325 823
2020-03-08 0939 420 PK Olathe KS USA na EM28ps 25 275 171
2020-03-08 0939 420 FQ 'Montz' Fairmont MN USA na EN23tp 25 714 444
2020-03-08 0937 419 GB 'Babsy' Great Bend KS USA na EM08ng 25 134 83
2020-03-08 0936 417 IY 'Chukk' Charles City IA USA na EN33pd 25 732 455
2020-03-08 0935 416 LB 'Panbe' North Platte NE USA na DN91rb 50 455 283
2020-03-08 0934 415 CBC West End (Cayman Brac) CYM ca FK09bq 600 2631 1635
2020-03-08 0933 413 YHD Dryden ON CAN na EN39nu 250 1403 872
2020-03-08 0933 414 SU 'Salix' Sioux City IA USA na EN12uh 40 525 326
2020-03-08 0931 410 JU 'Ashee' West Jefferson NC USA na EM96ik 25 1447 899
2020-03-08 0930 412 CMY 'Mc Coy' Sparta WI USA na EN43qw 10 906 563
2020-03-08 0928 410 BA 'Clifs' Columbus IN USA na EM79ch 25 1037 645
2020-03-08 0927 408 JDM 'Wheatfield' Colby KS USA na DM99lm 25 366 227
2020-03-08 0925 407 ZHU Hauts-Bois / St Hubert (Montreal) QC CAN na FN35hn 95 2180 1355
2020-03-08 0924 406 YLJ Meadow Lake SK CAN na DO54qd 15 2015 1252
2020-03-08 0921 404 XCR 'Ripley' Little Falls MN USA na EN26tb 50 967 601
2020-03-08 0920 407 CO 'Petey' Colorado Springs CO USA na DM78pq 25 636 395
2020-03-08 0918 403 ZTO Woodhill / Brampton (Toronto) ON CAN na FN03dr 40 1642 1020
2020-03-08 0915 404 MOG Montague CA USA na CN81sr 25 2170 1348
2020-03-08 0914 335 CV 'Hisan' Clovis NM USA na DM84ji 630 391
2020-03-08 0912 404 HU 'Saltt' Hutchinson KS USA na EM18ac 25 59 37
2020-03-08 0910 400 AHQ Wahoo NE USA na EN11qf 401 249
2020-03-08 0910 401 YPO Peawanuck ON CAN na EO74gx 125 2127 1322
2020-03-08 0909 400 QQ Comox BC CAN na CN79ms 2558 1589
2020-03-08 0904 400 FN 'Colln' Fort Collins / Loveland CO USA na DN70mi 25 706 438
2020-03-08 0904 397 CIR Cairo IL USA na EM57jb 25 739 459
2020-03-08 0902 399 ZHD 'Thunder' Dryden ON CAN na EN39qt 25 1404 872
2020-03-08 0900 396 YPH Inukjuak QC CAN na FO08wk 500 2699 1677
2020-03-08 0859 395 YL Lynn Lake MB CAN na DO96lt 1600 2142 1331
2020-03-08 0857 395 ULS Ulysses KS USA na DM97ho 338 210
2020-03-08 0856 395 CA 'Harvs' Newton KS USA na EM18id 25 55 34
2020-03-08 0855 392 FMZ 'Beklof' Fairmont NE USA na EN10fo 25 324 201
2020-03-08 0854 392 ML Charlevoix QC CAN na FN47uo 500 2469 1534
2020-03-08 0853 391 OO Oshawa ON CAN na FN03nw 7 1713 1064
2020-03-08 0852 391 DDP San Juan / Dorado / Luiz Munoz Marin Intl PR PTR ca FK68tl 2000 3700 2299
2020-03-08 0848 389 YWB Kelowna BC CAN na DN09et 2214 1375
2020-03-08 0847 388 MM Fort Mc Murray AB CAN na DO46hp 125 2342 1455
2020-03-08 0845 386 SYF St. Francis KS USA na DM99cr 25 433 269
2020-03-08 0845 388 OK 'Preso' Preston (Okmulgee) OK USA na EM25as 25 256 159
2020-03-08 0842 385 QV Yorkton SK CAN na DO81rf 100 1556 967
2020-03-08 0837 385 HO 'Hossy' Hot Springs AR USA na EM34jk 50 531 330
2020-03-08 0836 383 CNP Chappell NE USA na DN81sb 25 565 351
2020-03-08 0834 382 YPL Pickle Lake ON CAN na EO41vk 500 1633 1015
2020-03-08 0833 380 OEL Oakley KS USA na DM99oc 25 324 201
2020-03-08 0832 382 SP 'Huskk' Springfield IL USA na EM59cs 25 711 442
2020-03-08 0831 380 GC 'Deryk' Gillette WY USA na DN74fg 25 992 617
2020-03-08 0830 379 RUE Russellville AR USA na EM35kg 25 477 297
2020-03-08 0829 379 BRA 'Broad River' Asheville NC USA na EM85sg 100 1373 853
2020-03-08 0828 379 DL 'Pykla' Duluth MN USA na EN36tu 1104 686
2020-03-08 0825 376 YAG Fort Frances ON CAN na EN38fq 40 1265 786
2020-03-08 0824 374 HY 'Nette' Hays KS USA na EM08js 189 117
2020-03-08 0823 371 GW Jarpik Kuujjuarapik QC CAN na FO15cg 500 2453 1524
2020-03-08 0821 370 YBV Berens River MB CAN na EO12li 25 1631 1013
2020-03-08 0818 368 ROQ Ruston LA USA na EM32qo 25 720 448
2020-03-08 0818 368 ZP Sandspit BC CAN na CO43ce 3134 1947
2020-03-08 0817 366 YMW Maniwaki QC CAN na FN26ae 500 2011 1249
2020-03-08 0812 365 FT 'Mufin' Fort Worth TX USA na EM12hv 25 533 331
2020-03-08 0812 365 AA 'Kenie' Fargo MN USA na EN17oa 100 1039 646
2020-03-08 0810 362 AK Akron OH USA na EN91hb 1437 893
2020-03-08 0805 359 SDR Snyder TX USA na DM92mq 25 637 395
2020-03-08 0804 360 PN Port-Menier / Ile Anticosti QC CAN na FN79tu 500 2954 1835
2020-03-08 0802 359 YQZ Quesnel BC CAN na CO82sx 500 2561 1591
2020-03-08 0801 356 ODX Ord NE USA na EN01mo 25 452 281
2020-03-08 0800 356 ZF Yellowknife NT CAN na DP22sj 1000 2979 1851
2020-03-08 0759 356 ZXE Barnes (Saskatoon) SK CAN na DO62rd 39 1753 1089
2020-03-08 0757 355 YWP Webequie ON CAN na EO62hx 100 1872 1163
2020-03-08 0756 356 PI 'Tungg' Peoria IL USA na EN50eo 40 755 469
2020-03-08 0753 353 IN 'Raize' International Falls MN USA na EN38il 100 1248 775
2020-03-08 0753 353 LI 'Lasky' Little Rock AR USA na EM34uq 400 577 359
2020-03-08 0752 351 YKQ Waskaganish QC CAN na FO01pl 500 2127 1321
2020-03-08 0750 350 RB Resolute Bay NU CAN na EQ24mr 3000 4120 2560
2020-03-08 0746 349 GW 'Teock' Greenwood MS USA na EM43wo 25 809 503
2020-03-08 0746 350 RG 'Gally' Oklahoma City OK USA na EM15eh 400 264 164
2020-03-08 0744 347 AFK Nebraska City NE USA na EN20bo 355 220
2020-03-08 0743 347 PA Prince Albert SK CAN na DO73cf 25 1841 1144
2020-03-08 0742 346 YXL Sioux Lookout ON CAN na EO40bc 1000 1452 902
2020-03-08 0740 344 CGQ 'Powell' Corsicana TX USA na EM12sb 633 393
2020-03-08 0738 344 SL 'Flory' Salina KS USA na EM18eq 111 69
2020-03-08 0736 344 JL 'Lunns' Joplin MO USA na EM27re 271 168
2020-03-08 0733 344 JA 'Dinns' Jacksonville FL USA na EM90cl 400 1654 1027
2020-03-08 0732 341 DNI Denison TX USA na EM13pt 25 437 272
2020-03-08 0728 340 YY Mont Joli QC CAN na FN58un 500 2641 1641
2020-03-08 0728 341 EI 'Garfy' Enid OK USA na EM16cg 159 99
2020-03-08 0727 341 OIN Oberlin KS USA na DM99rt 25 351 218
2020-03-08 0724 338 JZ 'Newbn' Lawrence KS USA na EM28kv 25 250 155
2020-03-08 0722 338 RYN 'Ryan' Tucson AZ USA na DM42kd 400 1381 858
2020-03-08 0721 336 LF La Salle MB CAN na EN19ip 50 1330 826
2020-03-08 0721 336 BV Champlain QC CAN na FN46iu 25 2373 1474
2020-03-08 0720 335 YLD Chapleau ON CAN na EN87hs 100 1606 998
2020-03-08 0718 334 YER Fort Severn ON CAN na EO65ex 195 2164 1344
2020-03-08 0717 335 BV 'Almnd' Batesville AR USA na EM45cq 25 559 347
2020-03-08 0715 332 CZX Crosbyton TX USA na DM93jo 562 349
2020-03-08 0712 329 PMV Plattsmouth NE USA na EN20bw 25 389 241
2020-03-08 0711 329 BQP Bastrop LA USA na EM42bs 25 750 466
2020-03-08 0710 332 IC 'Piche' Wichita KS USA na EM17gn 25 16 10
2020-03-08 0709 329 YEK Arviat NU CAN na EP21xc 500 2615 1625
2020-03-08 0707 329 AAA 'Abraham' Lincoln IL USA na EN50hd 25 757 470
2020-03-08 0706 326 PKZ 'Pickens' Pensacola FL USA na EM60jk 400 1246 774
2020-03-08 0704 328 YTL Big Trout Lake ON CAN na EO53bt 1000 1886 1172
2020-03-08 0702 326 MA 'Farly' Midland TX USA na DM81ux 400 768 477
2020-03-08 0702 326 VV Wiarton ON CAN na EN94jq 400 1568 975
2020-03-08 0700 320 YQF Red Deer AB CAN na DO32bd 50 2049 1273
2020-03-08 0658 317 VC La Ronge SK CAN na DO75ic 500 2022 1257
2020-03-08 0657 317 ZZR 'Trenton (Apt)' Severn ON CAN na FN14eb 50 1812 1126
2020-03-08 0654 311 GK 'Jembo' Fort Smith AR USA na EM25sh 25 382 237
2020-03-08 0652 311 9Y Pincher Creek AB CAN na DN39am 50 1857 1154
2020-03-08 0651 308 ZZD Calmar (Edmonton Intl Apt) AB CAN na DO33eg 2128 1322
2020-03-08 0648 305 RO 'Topan' Roswell NM USA na DM73si 400 789 490
2020-03-08 0647 305 OI 'Tommi' South Sioux City NE USA na EN12sl 25 541 336
2020-03-08 0645 302 QW North Battleford SK CAN na DO52tt 40 1878 1167
2020-03-08 0644 385 HO 'Hossy' Hot Springs AR USA na EM34jk 50 531 330
2020-03-08 0643 300 YIV Island Lake MB CAN na EO23qu 500 1811 1125
2020-03-08 0642 299 TV Turner Valley AB CAN na DO20ts 200 1969 1223
2020-03-08 0641 296 LGD La Grande OR USA na DN15ai 25 1894 1177
2020-03-08 0637 293 TOR Torrington WY USA na DN72wb 25 743 461
2020-03-08 0637 293 UI Quincy IL USA na EM49iv 25 594 369
2020-03-08 0634 293 FBY Fairbury NE USA na EN10ke 50 280 174
2020-03-08 0633 292 ZET Devon (Edmonton Intl Apt) AB CAN na DO33di 25 2138 1329
2020-03-08 0632 290 TYV 'Toneyville' Jacksonville AR USA na EM34xw 25 580 360
2020-03-08 0630 290 YYF Penticton BC CAN na DN09el 500 2196 1364
2020-03-08 0630 290 QR Regina SK CAN na DO70ri 100 1514 940
2020-03-08 0629 289 YLQ La Tuque QC CAN na FN37oj 500 2283 1418
2020-03-08 0627 287 ZWG 'Stoney' Medicine Rock (Winnipeg) MB CAN na EN19jx 17 1367 849
2020-03-08 0625 286 EKS 'Big Sky' Ennis MT USA na DN45eg 1441 895
2020-03-08 0621 284 BT 'Rundi' Baton Rouge LA USA na EM40jn 983 611
2020-03-08 0619 282 ROS Rush City MN USA na EN35mq 25 967 601
2020-03-08 0617 278 NM Matagami QC CAN na FN19dr 400 2070 1286
2020-03-08 0615 278 CEP 'Capitan' Ruidoso NM USA na DM73hl 25 848 527
2020-03-08 0614 278 ADG Adrian MI USA na EN71xu 50 1241 771
2020-03-08 0613 276 3H Consort AB CAN na DO42pa 1895 1177
2020-03-08 0607 275 GUY Guymon OK USA na DM96fq 25 371 231
2020-03-08 0605 275 GEY Greybull WY USA na DN54xm 50 1161 721
2020-03-08 0604 274 YPM Pikangikum ON CAN na EO31at 25 1595 991
2020-03-08 0603 274 RG Red Wing MN USA na EN34qo 25 872 542
2020-03-08 0602 272 LD 'Lubbi' Lubbock TX USA na DM93dp 25 586 364
2020-03-08 0600 272 XS Prince George BC CAN na CO83qt 25 2620 1628
2020-03-08 0558 272 OLY 'Olney' Olney-Noble IL USA na EM58vr 25 823 511
2020-03-08 0556 272 IK Kankakee IL USA na EN61ba 909 565
2020-03-08 0552 269 UDE Delta MB CAN na EO00ud 50 1386 861
2020-03-08 0550 269 BEX Bloomfield IA USA na EN30sr 25 553 344
2020-03-08 0549 266 XD Edmonton AB CAN na DO33fp 2155 1339
2020-03-08 0548 267 HET Henryetta OK USA na EM15xj 25 288 179
2020-03-08 0545 263 YGK Kingston ON CAN na FN14qh 1000 1897 1178
2020-03-08 0544 263 GR 'Knobs' Grand Rapids MI USA na EN72hv 1181 734
2020-03-08 0541 263 DYQ 'Dulaney' Greenville TN USA na EM86nd 25 1314 816
2020-03-08 0538 260 YAT 'Wapisk' Attawapiskat ON CAN na EO82sw 125 2056 1277
2020-03-08 0536 260 MTH Marathon FL USA na EL94kr 100 2118 1316
2020-03-08 0535 260 ST 'Tario' Saint Joseph MO USA na EM29nq 25 321 199
2020-03-08 0534 258 ZSJ Sandy Lake ON CAN na EO33hb 500 1739 1081
2020-03-08 0533 257 XE Saskatoon SK CAN na DO62oe 25 1765 1097
2020-03-08 0532 257 FWC 'Wayne County' Fairfield IL USA na EM58tj 25 806 501
2020-03-08 0529 255 SW 'Blaki' Stillwater OK USA na EM16kf 50 166 103
2020-03-08 0527 251 YCD Nanaimo BC CAN na CN89bd 500 2460 1529
2020-03-08 0526 250 FO Flin Flon MB CAN na DO94dq 1600 1916 1190
2020-03-08 0519 251 AM 'Pande' Amarillo TX USA na DM95cd 400 474 294
2020-03-08 0518 250 UGS 'University' Athens / Albany OH USA na EM89wg 25 1352 840
2020-03-08 0515 248 PQF Mesquite TX USA na EM12rt 25 549 341
2020-03-08 0514 245 ARM Wharton TX USA na EL19wg 25 945 587
2020-03-08 0514 248 QL Lethbridge AB CAN na DN39no 1803 1120
2020-03-08 0507 245 ARM Wharton TX USA na EL19wg 25 945 587
2020-03-08 0506 245 YZE Gore Bay ON CAN na EN85qw 400 1535 954
2020-03-08 0503 244 TH Thompson MB CAN na EO15bt 1000 2015 1252
2020-03-08 0502 245 FS 'Rokky' Sioux Falls SD USA na EN13ol 100 647 402
2020-03-08 0500 242 XC Cranbrook BC CAN na DN29cq 400 1973 1226
2020-03-08 0454 242 EL 'Valtr' El Paso TX USA na DM61uu 400 1028 639
2020-03-08 0452 239 OJ High Level AB CAN na DO18kn 350 2716 1687
2020-03-08 0451 239 HKF 'Hook Field' Middletown OH USA na EM79sl 25 1153 717
2020-03-08 0448 236 OW Ramsayville (Ottawa) ON CAN na FN25fi 60 2011 1250
2020-03-08 0447 235 9H La Grande 3 QC CAN na FO13vn 250 2404 1493
2020-03-08 0442 233 BR Brandon MB CAN na DN99xv 25 1372 852
2020-03-08 0440 233 QN Nakina ON CAN na EO60qe 400 1638 1018
2020-03-08 0434 230 BNZ Abbeville LA USA na EL39wx 25 992 616
2020-03-08 0432 227 GW 'Aubon' De Kalb County, Auburn IN USA na EN71mh 25 1151 715
2020-03-08 0424 227 TNZ 'Lawrence Co.' Walnut Ridge AR USA na EM46me 25 608 378
2020-03-08 0422 224 MO Moosonee ON CAN na EO91qg 400 2010 1249
2020-03-08 0416 224 BH 'Mc Den' Birmingham AL USA na EM63nm 400 1069 664
2020-03-08 0413 219 YMG Manitouwadge ON CAN na EN79bb 100 1573 978
2020-03-08 0409 216 YFA Fort Albany ON CAN na EO92de 200 2028 1260
2020-03-08 0408 215 ZAB 'Leduc' Edmonton (Intl Apt) AB CAN na DO33gf 25 2117 1315
2020-03-08 0405 212 UC 'Obion' Union City TN USA na EM56mh 25 777 483
2020-03-08 0356 208 YSK Sanikiluaq NU CAN na FO06jm 400 2494 1550
2020-03-08 0056 223 YYW Armstrong ON CAN na EO50lh 100 1557 967
2020-03-08 0054 218 RL Red Lake ON CAN na EO31cb 1000 1516 942
2020-03-08 0051 212 LIU Littlefield TX USA na DM83tw 25 603 375
2020-03-08 0043 201 BV 'Dewie' Bartlesville OK USA na EM16xu 25 162 101
2020-03-08 0042 198 DIW Dixon NC USA na FM14gn 2000 1833 1139
2020-03-08 0041 209 ITR 'Kit Carson' Burlington CO USA na DM89uf 25 448 278
2020-03-07 0649 524 HRD 'Hardin County' Kountze / Silsbee TX USA na EM20ui 25 868 540
2020-03-07 0647 515 PN 'Ponca' Ponca City OK USA na EM16kt 25 104 65
2020-03-07 0646 428 POH Pocahontas IA USA na EN22qr 25 613 381
2020-03-07 0645 426 UV 'Tunng' Oxford MS USA na EM54ej 25 800 497
2020-03-07 0641 420 PK Olathe KS USA na EM28ps 25 275 171
2020-03-07 0639 420 FQ 'Montz' Fairmont MN USA na EN23tp 25 714 444
2020-03-07 0638 418 CW 'Mossy' Lake Charles LA USA na EM30jh 25 912 566
2020-03-07 0637 417 IY 'Chukk' Charles City IA USA na EN33pd 25 732 455
2020-03-07 0636 416 LB 'Panbe' North Platte NE USA na DN91rb 50 455 283
2020-03-07 0635 415 CBC West End (Cayman Brac) CYM ca FK09bq 600 2631 1635
2020-03-07 0634 413 YHD Dryden ON CAN na EN39nu 250 1403 872
2020-03-07 0634 414 ATS Artesia NM USA na DM72su 25 826 513
2020-03-07 0633 414 SU 'Salix' Sioux City IA USA na EN12uh 40 525 326
2020-03-07 0632 410 JU 'Ashee' West Jefferson NC USA na EM96ik 25 1447 899
2020-03-07 0631 408 JDM 'Wheatfield' Colby KS USA na DM99lm 25 366 227
2020-03-07 0629 406 YLJ Meadow Lake SK CAN na DO54qd 15 2015 1252
2020-03-07 0628 404 XCR 'Ripley' Little Falls MN USA na EN26tb 50 967 601
2020-03-07 0626 404 MOG Montague CA USA na CN81sr 25 2170 1348
2020-03-07 0625 404 HU 'Saltt' Hutchinson KS USA na EM18ac 25 59 37
2020-03-07 0624 401 YPO Peawanuck ON CAN na EO74gx 125 2127 1322
2020-03-07 0623 400 QQ Comox BC CAN na CN79ms 2558 1589
2020-03-07 0622 399 ZHD 'Thunder' Dryden ON CAN na EN39qt 25 1404 872
2020-03-07 0620 400 ROB 'Robinson' Waco TX USA na EM11lm 687 427
2020-03-07 0620 400 FN 'Colln' Fort Collins / Loveland CO USA na DN70mi 25 706 438
2020-03-07 0618 400 AI 'Addmo' Ardmore OK USA na EM14mf 25 388 241
2020-03-07 0614 396 YPH Inukjuak QC CAN na FO08wk 500 2699 1677
2020-03-07 0613 395 YL Lynn Lake MB CAN na DO96lt 1600 2142 1331
2020-03-07 0612 395 ULS Ulysses KS USA na DM97ho 338 210
2020-03-07 0611 395 CA 'Harvs' Newton KS USA na EM18id 25 55 34
2020-03-07 0609 391 GXD Nacogdoches TX USA na EM21pp 25 720 447
2020-03-07 0607 392 ML Charlevoix QC CAN na FN47uo 500 2469 1534
2020-03-07 0607 392 FMZ 'Beklof' Fairmont NE USA na EN10fo 25 324 201
2020-03-07 0605 391 OO Oshawa ON CAN na FN03nw 7 1713 1064
2020-03-07 0604 389 EN 'Codee' Kenosha WI USA na EN52xn 972 604
2020-03-07 0603 389 YWB Kelowna BC CAN na DN09et 2214 1375
2020-03-07 0600 388 MM Fort Mc Murray AB CAN na DO46hp 125 2342 1455
2020-03-07 0559 386 SYF St. Francis KS USA na DM99cr 25 433 269
2020-03-07 0559 388 OK 'Preso' Preston (Okmulgee) OK USA na EM25as 25 256 159
2020-03-07 0556 385 HO 'Hossy' Hot Springs AR USA na EM34jk 50 531 330
2020-03-07 0554 383 CNP Chappell NE USA na DN81sb 25 565 351
2020-03-07 0552 380 GC 'Deryk' Gillette WY USA na DN74fg 25 992 617
2020-03-07 0551 380 OEL Oakley KS USA na DM99oc 25 324 201
2020-03-07 0551 382 SP 'Huskk' Springfield IL USA na EM59cs 25 711 442
2020-03-07 0550 379 RUE Russellville AR USA na EM35kg 25 477 297
2020-03-07 0548 379 DL 'Pykla' Duluth MN USA na EN36tu 1104 686
2020-03-07 0548 379 BRA 'Broad River' Asheville NC USA na EM85sg 100 1373 853
2020-03-07 0544 374 HY 'Nette' Hays KS USA na EM08js 189 117
2020-03-07 0543 371 GW Jarpik Kuujjuarapik QC CAN na FO15cg 500 2453 1524
2020-03-07 0541 370 YBV Berens River MB CAN na EO12li 25 1631 1013
2020-03-07 0540 368 VX Dafoe SK CAN na DO71ru 80 1667 1036
2020-03-07 0539 368 ZP Sandspit BC CAN na CO43ce 3134 1947
2020-03-07 0538 368 ROQ Ruston LA USA na EM32qo 25 720 448
2020-03-07 0536 366 EOK Keokuk IA USA na EN40gl 25 610 379
2020-03-07 0535 366 YMW Maniwaki QC CAN na FN26ae 500 2011 1249
2020-03-07 0533 365 AA 'Kenie' Fargo MN USA na EN17oa 100 1039 646
2020-03-07 0532 365 FT 'Mufin' Fort Worth TX USA na EM12hv 25 533 331
2020-03-07 0531 362 SB Sudbury ON CAN na EN96mp 400 1685 1047
2020-03-07 0529 360 PN Port-Menier / Ile Anticosti QC CAN na FN79tu 500 2954 1835
2020-03-07 0528 359 SDR Snyder TX USA na DM92mq 25 637 395
2020-03-07 0527 359 YQZ Quesnel BC CAN na CO82sx 500 2561 1591
2020-03-07 0526 359 GGF Grant NE USA na DN90du 502 312
2020-03-07 0525 356 ODX Ord NE USA na EN01mo 25 452 281
2020-03-07 0524 356 ZF Yellowknife NT CAN na DP22sj 1000 2979 1851
2020-03-07 0522 355 YWP Webequie ON CAN na EO62hx 100 1872 1163
2020-03-07 0520 353 QG Saint Clair Beach (Windsor) ON CAN na EN82nh 25 1349 838
2020-03-07 0518 353 IN 'Raize' International Falls MN USA na EN38il 100 1248 775
2020-03-07 0517 353 LI 'Lasky' Little Rock AR USA na EM34uq 400 577 359
2020-03-07 0516 351 YKQ Waskaganish QC CAN na FO01pl 500 2127 1321
2020-03-07 0515 350 NY Enderby BC CAN na DO00mp 500 2220 1379
2020-03-07 0514 349 GW 'Teock' Greenwood MS USA na EM43wo 25 809 503
2020-03-07 0513 347 AFK Nebraska City NE USA na EN20bo 355 220
2020-03-07 0513 350 RG 'Gally' Oklahoma City OK USA na EM15eh 400 264 164
2020-03-07 0512 346 YXL Sioux Lookout ON CAN na EO40bc 1000 1452 902
2020-03-07 0508 340 YY Mont Joli QC CAN na FN58un 500 2641 1641
2020-03-07 0507 341 OIN Oberlin KS USA na DM99rt 25 351 218
2020-03-07 0506 341 EI 'Garfy' Enid OK USA na EM16cg 159 99
2020-03-07 0505 338 TU 'Oillr' Tulsa OK USA na EM26bc 230 143
2020-03-07 0504 338 ZEM Eastmain QC CAN na FO02rf 25 2189 1360
2020-03-07 0502 336 MA 'Wexford' Cadillac MI USA na EN74ff 1240 771
2020-03-07 0501 338 RYN 'Ryan' Tucson AZ USA na DM42kd 400 1381 858
2020-03-07 0500 336 LF La Salle MB CAN na EN19ip 50 1330 826
2020-03-07 0455 335 YLD Chapleau ON CAN na EN87hs 100 1606 998
2020-03-07 0454 334 YER Fort Severn ON CAN na EO65ex 195 2164 1344
2020-03-07 0453 332 CZX Crosbyton TX USA na DM93jo 562 349
2020-03-07 0452 332 QT Thunder Bay ON CAN na EN58gi 1000 1354 841
2020-03-07 0450 329 PMV Plattsmouth NE USA na EN20bw 25 389 241
2020-03-07 0450 332 IC 'Piche' Wichita KS USA na EM17gn 25 16 10
2020-03-07 0449 329 YEK Arviat NU CAN na EP21xc 500 2615 1625
2020-03-07 0446 328 YTL Big Trout Lake ON CAN na EO53bt 1000 1886 1172
2020-03-07 0445 329 AAA 'Abraham' Lincoln IL USA na EN50hd 25 757 470
2020-03-07 0442 326 MA 'Farly' Midland TX USA na DM81ux 400 768 477
2020-03-07 0442 326 PKZ 'Pickens' Pensacola FL USA na EM60jk 400 1246 774
2020-03-07 0441 326 VV Wiarton ON CAN na EN94jq 400 1568 975
2020-03-07 0437 320 YQF Red Deer AB CAN na DO32bd 50 2049 1273
2020-03-07 0435 317 ZZR 'Trenton (Apt)' Severn ON CAN na FN14eb 50 1812 1126
2020-03-07 0432 317 VC La Ronge SK CAN na DO75ic 500 2022 1257
2020-03-07 0430 311 9Y Pincher Creek AB CAN na DN39am 50 1857 1154
2020-03-07 0426 305 OI 'Tommi' South Sioux City NE USA na EN12sl 25 541 336
2020-03-07 0422 305 RO 'Topan' Roswell NM USA na DM73si 400 789 490
2020-03-07 0419 300 YIV Island Lake MB CAN na EO23qu 500 1811 1125
2020-03-07 0418 299 TV Turner Valley AB CAN na DO20ts 200 1969 1223
2020-03-07 0416 293 UI Quincy IL USA na EM49iv 25 594 369
2020-03-07 0414 293 TOR Torrington WY USA na DN72wb 25 743 461
2020-03-07 0414 293 FBY Fairbury NE USA na EN10ke 50 280 174
2020-03-07 0412 290 YYF Penticton BC CAN na DN09el 500 2196 1364
2020-03-07 0411 290 QR Regina SK CAN na DO70ri 100 1514 940
2020-03-07 0410 287 ZWG 'Stoney' Medicine Rock (Winnipeg) MB CAN na EN19jx 17 1367 849
2020-03-07 0408 284 RT Rankin Inlet NU CAN na EP32wt 1000 2817 1750
2020-03-07 0406 282 ROS Rush City MN USA na EN35mq 25 967 601
2020-03-07 0401 278 ADG Adrian MI USA na EN71xu 50 1241 771
2020-03-07 0401 278 NM Matagami QC CAN na FN19dr 400 2070 1286
2020-03-07 0359 278 CEP 'Capitan' Ruidoso NM USA na DM73hl 25 848 527
2020-03-07 0358 276 YEL Elliot Lake ON CAN na EN86qi 250 1560 969
2020-03-07 0356 272 YQA Muskoka ON CAN na FN05ia 400 1722 1070
2020-03-07 0354 272 LD 'Lubbi' Lubbock TX USA na DM93dp 25 586 364
2020-03-07 0353 269 BEX Bloomfield IA USA na EN30sr 25 553 344
2020-03-07 0352 269 UDE Delta MB CAN na EO00ud 50 1386 861
2020-03-07 0349 266 XD Edmonton AB CAN na DO33fp 2155 1339
2020-03-07 0348 267 HET Henryetta OK USA na EM15xj 25 288 179
2020-03-07 0347 263 CVM 'Civic Memorial' Alton IL USA na EM48xv 668 415
2020-03-07 0344 260 MTH Marathon FL USA na EL94kr 100 2118 1316
2020-03-07 0342 260 YAT 'Wapisk' Attawapiskat ON CAN na EO82sw 125 2056 1277
2020-03-07 0341 260 ST 'Tario' Saint Joseph MO USA na EM29nq 25 321 199
2020-03-07 0339 257 DT 'Pinck' Denton TX USA na EM13jg 25 492 306
2020-03-07 0339 258 ZSJ Sandy Lake ON CAN na EO33hb 500 1739 1081
2020-03-07 0337 257 JYR York NE USA na EN10ev 25 357 222
2020-03-07 0336 257 XE Saskatoon SK CAN na DO62oe 25 1765 1097
2020-03-07 0332 255 SW 'Blaki' Stillwater OK USA na EM16kf 50 166 103
2020-03-07 0330 251 YCD Nanaimo BC CAN na CN89bd 500 2460 1529
2020-03-07 0329 250 FO Flin Flon MB CAN na DO94dq 1600 1916 1190
2020-03-07 0328 251 JZY Macomb IL USA na EN40rm 25 681 423
2020-03-07 0326 251 AM 'Pande' Amarillo TX USA na DM95cd 400 474 294
2020-03-07 0325 248 PQF Mesquite TX USA na EM12rt 25 549 341
2020-03-07 0321 245 YZE Gore Bay ON CAN na EN85qw 400 1535 954
2020-03-07 0320 244 TH Thompson MB CAN na EO15bt 1000 2015 1252
2020-03-07 0319 245 FS 'Rokky' Sioux Falls SD USA na EN13ol 100 647 402
2020-03-07 0316 242 EL 'Valtr' El Paso TX USA na DM61uu 400 1028 639
2020-03-07 0312 239 HKF 'Hook Field' Middletown OH USA na EM79sl 25 1153 717
2020-03-07 0305 236 OW Ramsayville (Ottawa) ON CAN na FN25fi 60 2011 1250
2020-03-07 0300 233 AZN 'Amazon' St. Joseph MO USA na EM29nv 25 337 209
2020-03-07 0300 233 QN Nakina ON CAN na EO60qe 400 1638 1018
2020-03-07 0256 230 NRN Norton KS USA na EM09bu 25 314 195
2020-03-07 0251 224 MO Moosonee ON CAN na EO91qg 400 2010 1249
2020-03-07 0250 223 YYW Armstrong ON CAN na EO50lh 100 1557 967
2020-03-07 0247 219 YMG Manitouwadge ON CAN na EN79bb 100 1573 978
2020-03-07 0246 218 RL Red Lake ON CAN na EO31cb 1000 1516 942
2020-03-07 0241 212 LIU Littlefield TX USA na DM83tw 25 603 375
2020-03-07 0239 212 UC 'Obion' Union City TN USA na EM56mh 25 777 483
2020-03-07 0234 209 ITR 'Kit Carson' Burlington CO USA na DM89uf 25 448 278
2020-03-07 0230 201 BV 'Dewie' Bartlesville OK USA na EM16xu 25 162 101
2020-03-07 0229 198 DIW Dixon NC USA na FM14gn 2000 1833 1139
2020-03-06 1306 392 FMZ 'Beklof' Fairmont NE USA na EN10fo 25 324 201
2020-03-06 1303 386 SYF St. Francis KS USA na DM99cr 25 433 269
2020-03-06 1302 388 OK 'Preso' Preston (Okmulgee) OK USA na EM25as 25 256 159
2020-03-06 1249 344 SL 'Flory' Salina KS USA na EM18eq 111 69
2020-03-06 1245 338 RYN 'Ryan' Tucson AZ USA na DM42kd 400 1381 858
2020-03-06 1239 326 MA 'Farly' Midland TX USA na DM81ux 400 768 477
2020-03-06 1236 311 GK 'Jembo' Fort Smith AR USA na EM25sh 25 382 237
2020-03-06 1233 305 RO 'Topan' Roswell NM USA na DM73si 400 789 490
2020-03-06 1230 299 TV Turner Valley AB CAN na DO20ts 200 1969 1223
2020-03-06 1227 290 QR Regina SK CAN na DO70ri 100 1514 940
2020-03-06 1223 281 DMO Sedalia MO USA na EM38jq 25 395 245
2020-03-06 1221 275 SWW Sweetwater TX USA na DM92sl 25 637 396
2020-03-06 1217 272 LD 'Lubbi' Lubbock TX USA na DM93dp 25 586 364
2020-03-06 1213 266 XD Edmonton AB CAN na DO33fp 2155 1339
2020-03-06 1211 263 CVM 'Civic Memorial' Alton IL USA na EM48xv 668 415
2020-03-06 1206 257 JYR York NE USA na EN10ev 25 357 222
2020-03-06 1155 244 TH Thompson MB CAN na EO15bt 1000 2015 1252
2020-03-06 1154 242 XC Cranbrook BC CAN na DN29cq 400 1973 1226
2020-03-06 1152 242 EL 'Valtr' El Paso TX USA na DM61uu 400 1028 639
2020-03-06 1149 239 OJ High Level AB CAN na DO18kn 350 2716 1687
2020-03-06 1148 239 HKF 'Hook Field' Middletown OH USA na EM79sl 25 1153 717
2020-03-06 1145 236 ZRJ Round Lake ON CAN na EO42iw 25 1763 1095
2020-03-06 1142 233 QN Nakina ON CAN na EO60qe 400 1638 1018
2020-03-06 1136 224 MO Moosonee ON CAN na EO91qg 400 2010 1249
2020-03-06 1129 219 YMG Manitouwadge ON CAN na EN79bb 100 1573 978
2020-03-06 1126 216 YFA Fort Albany ON CAN na EO92de 200 2028 1260
2020-03-06 1121 212 YGX Gillam MB CAN na EO26pi 2086 1296
2020-03-06 1117 209 ITR 'Kit Carson' Burlington CO USA na DM89uf 25 448 278
2020-03-06 1111 200 UAB Anahim Lake BC CAN na CO72jj 1000 2692 1673
2020-03-06 1108 198 DIW Dixon NC USA na FM14gn 2000 1833 1139
2020-03-06 1107 245 FS 'Rokky' Sioux Falls SD USA na EN13ol 100 647 402
2020-03-06 0511 278 CEP 'Capitan' Ruidoso NM USA na DM73hl 25 848 527
2020-03-06 0510 278 ADG Adrian MI USA na EN71xu 50 1241 771
2020-03-06 0508 275 GUY Guymon OK USA na DM96fq 25 371 231
2020-03-06 0507 274 YPM Pikangikum ON CAN na EO31at 25 1595 991
2020-03-06 0505 272 YQA Muskoka ON CAN na FN05ia 400 1722 1070
2020-03-06 0504 269 BEX Bloomfield IA USA na EN30sr 25 553 344
2020-03-06 0503 269 UDE Delta MB CAN na EO00ud 50 1386 861
2020-03-06 0501 267 HET Henryetta OK USA na EM15xj 25 288 179
2020-03-06 0459 260 YAT 'Wapisk' Attawapiskat ON CAN na EO82sw 125 2056 1277
2020-03-06 0457 258 ZSJ Sandy Lake ON CAN na EO33hb 500 1739 1081
2020-03-06 0455 257 XE Saskatoon SK CAN na DO62oe 25 1765 1097
2020-03-06 0454 255 SW 'Blaki' Stillwater OK USA na EM16kf 50 166 103
2020-03-06 0451 250 FO Flin Flon MB CAN na DO94dq 1600 1916 1190
2020-03-06 0450 251 JZY Macomb IL USA na EN40rm 25 681 423
2020-03-06 0448 248 PQF Mesquite TX USA na EM12rt 25 549 341
2020-03-06 0448 251 AM 'Pande' Amarillo TX USA na DM95cd 400 474 294
2020-03-06 0447 248 UL Montreal QC CAN na FN35bl 1000 2140 1330
2020-03-06 0445 245 ARM Wharton TX USA na EL19wg 25 945 587
2020-03-06 0444 245 YZE Gore Bay ON CAN na EN85qw 400 1535 954
2020-03-06 0440 227 TNZ 'Lawrence Co.' Walnut Ridge AR USA na EM46me 25 608 378
2020-03-06 0437 223 YYW Armstrong ON CAN na EO50lh 100 1557 967
2020-03-06 0435 218 RL Red Lake ON CAN na EO31cb 1000 1516 942
2020-03-06 0430 208 YSK Sanikiluaq NU CAN na FO06jm 400 2494 1550
2020-03-06 0430 209 IB Atikokan ON CAN na EN48ft 250 1328 825
2020-03-06 0427 201 BV 'Dewie' Bartlesville OK USA na EM16xu 25 162 101
2020-03-06 0425 524 HRD 'Hardin County' Kountze / Silsbee TX USA na EM20ui 25 868 540
2020-03-06 0423 516 YWA Petawawa ON CAN na FN15iv 25 1903 1182
2020-03-06 0422 515 PN 'Ponca' Ponca City OK USA na EM16kt 25 104 65
2020-03-06 0420 428 POH Pocahontas IA USA na EN22qr 25 613 381
2020-03-06 0414 420 V7BE5 Deepwater Pontus XOC iw 125
2020-03-06 0405 420 FQ 'Montz' Fairmont MN USA na EN23tp 25 714 444
2020-03-06 0404 419 GB 'Babsy' Great Bend KS USA na EM08ng 25 134 83
2020-03-06 0402 383 LB 'Panck' Liberal KS USA na DM96mx 312 194
2020-03-06 0400 413 YHD Dryden ON CAN na EN39nu 250 1403 872
2020-03-06 0358 408 JDM 'Wheatfield' Colby KS USA na DM99lm 25 366 227
2020-03-06 0357 406 YLJ Meadow Lake SK CAN na DO54qd 15 2015 1252
2020-03-06 0355 407 CO 'Petey' Colorado Springs CO USA na DM78pq 25 636 395
2020-03-06 0352 404 MOG Montague CA USA na CN81sr 25 2170 1348
2020-03-06 0350 404 HU 'Saltt' Hutchinson KS USA na EM18ac 25 59 37
2020-03-06 0348 399 ZHD 'Thunder' Dryden ON CAN na EN39qt 25 1404 872
2020-03-06 0347 400 AHQ Wahoo NE USA na EN11qf 401 249
2020-03-06 0346 401 YPO Peawanuck ON CAN na EO74gx 125 2127 1322
2020-03-06 0344 396 YPH Inukjuak QC CAN na FO08wk 500 2699 1677
2020-03-06 0341 395 ULS Ulysses KS USA na DM97ho 338 210
2020-03-06 0339 395 CA 'Harvs' Newton KS USA na EM18id 25 55 34
2020-03-06 0335 385 QV Yorkton SK CAN na DO81rf 100 1556 967
2020-03-06 0332 383 CNP Chappell NE USA na DN81sb 25 565 351
2020-03-06 0331 382 YPL Pickle Lake ON CAN na EO41vk 500 1633 1015
2020-03-06 0330 380 OEL Oakley KS USA na DM99oc 25 324 201
2020-03-06 0329 382 SP 'Huskk' Springfield IL USA na EM59cs 25 711 442
2020-03-06 0328 379 RUE Russellville AR USA na EM35kg 25 477 297
2020-03-06 0324 374 HY 'Nette' Hays KS USA na EM08js 189 117
2020-03-06 0322 370 YBV Berens River MB CAN na EO12li 25 1631 1013
2020-03-06 0321 368 VX Dafoe SK CAN na DO71ru 80 1667 1036
2020-03-06 0317 366 EOK Keokuk IA USA na EN40gl 25 610 379
2020-03-06 0316 366 YMW Maniwaki QC CAN na FN26ae 500 2011 1249
2020-03-06 0311 362 SB Sudbury ON CAN na EN96mp 400 1685 1047
2020-03-06 0309 365 AA 'Kenie' Fargo MN USA na EN17oa 100 1039 646
2020-03-06 0309 365 FT 'Mufin' Fort Worth TX USA na EM12hv 25 533 331
2020-03-06 0304 360 PN Port-Menier / Ile Anticosti QC CAN na FN79tu 500 2954 1835
2020-03-06 0302 359 SDR Snyder TX USA na DM92mq 25 637 395
2020-03-06 0301 359 GGF Grant NE USA na DN90du 502 312
2020-03-06 0257 356 ODX Ord NE USA na EN01mo 25 452 281
2020-03-06 0252 355 YWP Webequie ON CAN na EO62hx 100 1872 1163
2020-03-06 0250 353 LI 'Lasky' Little Rock AR USA na EM34uq 400 577 359
2020-03-06 0249 353 PG Portage MB CAN na EN09vu 25 1354 841
2020-03-06 0247 351 YKQ Waskaganish QC CAN na FO01pl 500 2127 1321
2020-03-06 0243 347 AFK Nebraska City NE USA na EN20bo 355 220
2020-03-06 0235 346 YXL Sioux Lookout ON CAN na EO40bc 1000 1452 902
2020-03-06 0231 341 OIN Oberlin KS USA na DM99rt 25 351 218
2020-03-06 0230 338 JZ 'Newbn' Lawrence KS USA na EM28kv 25 250 155
2020-03-06 0226 338 TU 'Oillr' Tulsa OK USA na EM26bc 230 143
2020-03-06 0219 335 BV 'Almnd' Batesville AR USA na EM45cq 25 559 347
2020-03-06 0219 335 BK 'CHRLZ' Brookings SD USA na EN14mi 25 743 461
2020-03-06 0214 335 YLD Chapleau ON CAN na EN87hs 100 1606 998
2020-03-06 0206 332 FIS 'Fish Hook' Key West FL USA na EL94cn 400 2086 1296
2020-03-06 0204 329 PMV Plattsmouth NE USA na EN20bw 25 389 241
2020-03-06 0204 332 IC 'Piche' Wichita KS USA na EM17gn 25 16 10
2020-03-06 0202 328 YTL Big Trout Lake ON CAN na EO53bt 1000 1886 1172
2020-03-06 0154 293 FBY Fairbury NE USA na EN10ke 50 280 174
2020-03-06 0154 293 TOR Torrington WY USA na DN72wb 25 743 461
2020-03-05 0610 282 ROS Rush City MN USA na EN35mq 25 967 601
2020-03-05 0606 278 NM Matagami QC CAN na FN19dr 400 2070 1286
2020-03-05 0605 278 CEP 'Capitan' Ruidoso NM USA na DM73hl 25 848 527
2020-03-05 0604 278 ADG Adrian MI USA na EN71xu 50 1241 771
2020-03-05 0602 276 YEL Elliot Lake ON CAN na EN86qi 250 1560 969
2020-03-05 0556 266 XD Edmonton AB CAN na DO33fp 2155 1339
2020-03-05 0551 258 ZSJ Sandy Lake ON CAN na EO33hb 500 1739 1081
2020-03-05 0550 257 XE Saskatoon SK CAN na DO62oe 25 1765 1097
2020-03-05 0548 260 YAT 'Wapisk' Attawapiskat ON CAN na EO82sw 125 2056 1277
2020-03-05 0540 251 JZY Macomb IL USA na EN40rm 25 681 423
2020-03-05 0538 248 UL Montreal QC CAN na FN35bl 1000 2140 1330
2020-03-05 0535 245 YZE Gore Bay ON CAN na EN85qw 400 1535 954
2020-03-05 0533 242 EL 'Valtr' El Paso TX USA na DM61uu 400 1028 639
2020-03-05 0529 233 QN Nakina ON CAN na EO60qe 400 1638 1018
2020-03-05 0522 227 FZ 'Eaves' St. Louis MO USA na EM48rq 622 386
2020-03-05 0520 227 TNZ 'Lawrence Co.' Walnut Ridge AR USA na EM46me 25 608 378
2020-03-05 0519 224 MO Moosonee ON CAN na EO91qg 400